METAR stanice u blizini

 

LYBE - Beograd / Surčin, Srbija
Ažurirano: 16/01/2021 15:53
unable to load LYBE data RC=
unable to load LYBE data RC=
 
LYBT - Beograd / Batajnica, Srbija
Ažurirano: 16/01/2021 15:30
Partly Cloudy
Partly Cloudy
 Pravac vetra SZ
Vetar: SZ 17 km/h
Temperatura: -1°C
Osećaj hladnoće: -6°C
Tačka rose: -5°C
Vlažnost: 75%
Pritisak: 1019 hPa
Oblaci: Partly Cloudy
Vidljivost: 10 km
Cloud details: Partly Cloudy 1006 m
2021/01/16 14:30 LYBT 161430Z 31009KT 9999 SCT033 M01/M05 Q1019 NOSIG
LYVR - Vršac, Srbija
Ažurirano: 16/01/2021 15:30
Mostly Cloudy
Mostly Cloudy
 Pravac vetra varies
Vetar: varies 4 km/h
Temperatura: -3°C
Tačka rose: -5°C
Vlažnost: 86%
Pritisak: 1019 hPa
Oblaci: Mostly Cloudy
Vidljivost: 10 km
Cloud details: Partly Cloudy 305 m
Mostly Cloudy 1219 m
2021/01/16 14:30 LYVR 161430Z VRB02KT 9999 SCT010 BKN040 M03/M05 Q1019
 
LYKV - Lađevci, Srbija
Ažurirano: 16/01/2021 15:30
Light snow, Showers, Pretežno oblačno
Light snow, Showers, Pretežno oblačno
 Pravac vetra SZ
Vetar: SZ 15 km/h
Temperatura: -2°C
Osećaj hladnoće: -7°C
Tačka rose: -6°C
Vlažnost: 74%
Pritisak: 1018 hPa
Pregled: Light snow, Showers
Oblaci: Mostly Cloudy
Vidljivost: 10 km
Cloud details: Mostly Cloudy 914 m
2021/01/16 14:30 LYKV 161430Z 32008KT 9999 -SHSN BKN030 M02/M06 Q1018 NOSIG
LYNI - Niš, Srbija
Ažurirano: 16/01/2021 15:30
Few Clouds
Few Clouds
 Pravac vetra SSZ
Vetar: SSZ 28 km/h
Temperatura: -3°C
Osećaj hladnoće: -10°C
Tačka rose: -10°C
Vlažnost: 59%
Pritisak: 1017 hPa
Oblaci: Few Clouds
Vidljivost: 10 km
Cloud details: Few Clouds 701 m
2021/01/16 14:30 LYNI 161430Z 33015KT 9999 FEW023 M03/M10 Q1017 NOSIG
BKPR - Priština, Srbija
Ažurirano: 16/01/2021 15:30
Light snow, Pretežno oblačno
Light snow, Pretežno oblačno
 Pravac vetra S
Vetar: S 20 km/h
Temperatura: -4°C
Osećaj hladnoće: -11°C
Tačka rose: -10°C
Vlažnost: 63%
Pritisak: 1015 hPa
Pregled: Light Snow
Oblaci: Mostly Cloudy
Vidljivost: 7 km
Cloud details: Partly Cloudy 762 m
Mostly Cloudy 1219 m
2021/01/16 14:30 BKPR 161430Z 36011KT 7000 -SN SCT025 BKN040 M04/M10 Q1015 NOSIG RMK 17190095
 
LHPP - Pecs / Pogany, Hungary
Ažurirano: 16/01/2021 15:15
Mostly Cloudy
Mostly Cloudy
 Pravac vetra SSZ
Vetar: SSZ 19 km/h
Temperatura: -1°C
Osećaj hladnoće: -7°C
Tačka rose: -5°C
Vlažnost: 75%
Pritisak: 1019 hPa
Oblaci: Mostly Cloudy
Vidljivost: 10 km
Cloud details: Few Clouds 488 m
Few Clouds 488 m
Mostly Cloudy 2530 m
2021/01/16 14:15 LHPP 161415Z 33010KT 9999 FEW016 FEW016TCU BKN083 M01/M05 Q1019
LHUD - Szeged, Hungary
Ažurirano: 04/07/2019 01:45
NOT Current
Vedro
Vedro
 Pravac vetra S
Vetar: S 7 km/h
Temperatura: 18°C
Tačka rose: 13°C
Vlažnost: 73%
Pritisak: 1019 hPa
Pregled: Vedro
Vidljivost: greater than 10 km
2019/07/03 23:45 LHUD 032345Z 35004KT CAVOK 18/13 Q1019
LRTR - Timisoara, Romania
Ažurirano: 16/01/2021 15:30
Vedro
Vedro
 Pravac vetra SSZ
Vetar: SSZ 7 km/h
Temperatura: -4°C
Osećaj hladnoće: -7°C
Tačka rose: -5°C
Vlažnost: 93%
Pritisak: 1019 hPa
Pregled: Vedro
Vidljivost: greater than 10 km
2021/01/16 14:30 LRTR 161430Z 33004KT CAVOK M04/M05 Q1019 R11/190095
 
LRCV - Craiova, Romania
Ažurirano: 16/01/2021 15:30
Vedro
Vedro
 Pravac vetra JJZ
Vetar: JJZ 7 km/h
Temperatura: -2°C
Osećaj hladnoće: -6°C
Tačka rose: -5°C
Vlažnost: 80%
Pritisak: 1013 hPa
Pregled: Vedro
Vidljivost: greater than 10 km
2021/01/16 14:30 LRCV 161430Z 21004KT CAVOK M02/M05 Q1013
LBSF - Sofia, Bulgaria
Ažurirano: 16/01/2021 15:30
Oblačno
Oblačno
 Pravac vetra ZSZ
Vetar: ZSZ 20 km/h
Temperatura: -3°C
Osećaj hladnoće: -9°C
Tačka rose: -11°C
Vlažnost: 54%
Pritisak: 1012 hPa
Oblaci: Oblačno
Vidljivost: 10 km
Cloud details: Partly Cloudy 1433 m
Oblačno 1646 m
2021/01/16 14:30 LBSF 161430Z 29011KT 9999 SCT047 OVC054 M03/M11 Q1012 NOSIG
LWSK - Skoplje, Makedonija
Ažurirano: 16/01/2021 15:30
Mostly Cloudy
Mostly Cloudy
 Pravac vetra SSZ
Vetar: SSZ 26 km/h
Temperatura: -1°C
Osećaj hladnoće: -7°C
Tačka rose: -11°C
Vlažnost: 47%
Pritisak: 1016 hPa
Oblaci: Mostly Cloudy
Vidljivost: 10 km
Cloud details: Mostly Cloudy 1524 m
2021/01/16 14:30 LWSK 161430Z 34014KT 9999 BKN050 M01/M11 Q1016 NOSIG
 
LYPG - Podgorica, Crna Gora
Ažurirano: 16/01/2021 15:30
Vedro
Vedro
 Pravac vetra SSI
Vetar: SSI 31 km/h, Maks.: 50 km/h
Temperatura: 3°C
Osećaj hladnoće: -3°C
Tačka rose: -16°C
Vlažnost: 23%
Pritisak: 1016 hPa
Pregled: Vedro
Vidljivost: greater than 10 km
2021/01/16 14:30 LYPG 161430Z 02017G27KT CAVOK 03/M16 Q1016 NOSIG
LQSA - Sarajevo, Bosna i Hercegovina
Ažurirano: 16/01/2021 15:30
Mostly Cloudy
Mostly Cloudy
 Pravac vetra SSZ
Vetar: SSZ 11 km/h
Temperatura: -3°C
Osećaj hladnoće: -7°C
Tačka rose: -8°C
Vlažnost: 69%
Pritisak: 1016 hPa
Oblaci: Mostly Cloudy
Vidljivost: 10 km
Cloud details: Few Clouds 640 m
Partly Cloudy 1006 m
Mostly Cloudy 1219 m
2021/01/16 14:30 LQSA 161430Z 34006KT 310V010 9999 FEW021 SCT033 BKN040 M03/M08 Q1016 NOSIG
LDOS - Osijek, Hrvatksa
Ažurirano: 16/01/2021 15:30
Light snow, Pretežno oblačno
Light snow, Pretežno oblačno
 Pravac vetra SZ
Vetar: SZ 26 km/h
Temperatura: 0°C
Osećaj hladnoće: -6°C
Tačka rose: -5°C
Vlažnost: 69%
Pritisak: 1020 hPa
Pregled: Light Snow
Oblaci: Mostly Cloudy
Vidljivost: 10 km
Cloud details: Few Clouds 305 m
Mostly Cloudy 914 m
2021/01/16 14:30 LDOS 161430Z 31014KT 9999 -SN FEW010 BKN030 M00/M05 Q1020